sensor_id;sensor_type;location;lat;lon;timestamp;P1;durP1;ratioP1;P2;durP2;ratioP2
73276;SDS011;61501;43.316;5.372;2022-10-16T00:00:35;6.25;;;4.20;;
73276;SDS011;61501;43.316;5.372;2022-10-16T00:03:02;7.20;;;4.20;;
73276;SDS011;61501;43.316;5.372;2022-10-16T00:05:30;5.55;;;4.15;;
73276;SDS011;61501;43.316;5.372;2022-10-16T00:07:56;6.25;;;3.95;;
73276;SDS011;61501;43.316;5.372;2022-10-16T00:10:21;7.18;;;3.83;;
73276;SDS011;61501;43.316;5.372;2022-10-16T00:12:47;7.88;;;4.25;;
73276;SDS011;61501;43.316;5.372;2022-10-16T00:15:13;6.25;;;3.67;;
73276;SDS011;61501;43.316;5.372;2022-10-16T00:17:39;6.68;;;5.38;;
73276;SDS011;61501;43.316;5.372;2022-10-16T00:20:05;8.65;;;6.47;;
73276;SDS011;61501;43.316;5.372;2022-10-16T00:22:31;7.07;;;3.85;;
73276;SDS011;61501;43.316;5.372;2022-10-16T00:24:57;5.35;;;3.78;;
73276;SDS011;61501;43.316;5.372;2022-10-16T00:27:23;4.38;;;3.72;;
73276;SDS011;61501;43.316;5.372;2022-10-16T00:29:52;5.60;;;3.85;;
73276;SDS011;61501;43.316;5.372;2022-10-16T00:32:18;6.15;;;4.30;;
73276;SDS011;61501;43.316;5.372;2022-10-16T00:34:44;8.30;;;4.32;;
73276;SDS011;61501;43.316;5.372;2022-10-16T00:37:10;4.88;;;4.18;;
73276;SDS011;61501;43.316;5.372;2022-10-16T00:39:36;6.40;;;4.78;;
73276;SDS011;61501;43.316;5.372;2022-10-16T00:42:02;5.85;;;4.40;;
73276;SDS011;61501;43.316;5.372;2022-10-16T00:47:28;7.20;;;4.45;;
73276;SDS011;61501;43.316;5.372;2022-10-16T00:50:43;5.70;;;4.20;;
73276;SDS011;61501;43.316;5.372;2022-10-16T00:52:48;7.38;;;4.03;;
73276;SDS011;61501;43.316;5.372;2022-10-16T00:55:16;6.80;;;4.53;;
73276;SDS011;61501;43.316;5.372;2022-10-16T00:57:42;5.50;;;3.75;;
73276;SDS011;61501;43.316;5.372;2022-10-16T01:00:12;7.15;;;4.22;;
73276;SDS011;61501;43.316;5.372;2022-10-16T01:02:40;6.68;;;4.10;;
73276;SDS011;61501;43.316;5.372;2022-10-16T01:05:06;6.88;;;3.70;;
73276;SDS011;61501;43.316;5.372;2022-10-16T01:10:52;6.65;;;5.93;;
73276;SDS011;61501;43.316;5.372;2022-10-16T01:13:27;8.80;;;5.18;;
73276;SDS011;61501;43.316;5.372;2022-10-16T01:16:05;5.00;;;3.90;;
73276;SDS011;61501;43.316;5.372;2022-10-16T01:18:46;6.18;;;4.47;;
73276;SDS011;61501;43.316;5.372;2022-10-16T01:21:32;6.95;;;3.97;;
73276;SDS011;61501;43.316;5.372;2022-10-16T01:24:08;8.85;;;4.32;;
73276;SDS011;61501;43.316;5.372;2022-10-16T01:35:05;5.15;;;4.20;;
73276;SDS011;61501;43.316;5.372;2022-10-16T01:40:32;4.82;;;3.75;;
73276;SDS011;61501;43.316;5.372;2022-10-16T01:43:20;5.57;;;4.18;;
73276;SDS011;61501;43.316;5.372;2022-10-16T01:45:49;6.13;;;4.45;;
73276;SDS011;61501;43.316;5.372;2022-10-16T01:48:17;7.32;;;4.32;;
73276;SDS011;61501;43.316;5.372;2022-10-16T01:50:44;5.88;;;4.50;;
73276;SDS011;61501;43.316;5.372;2022-10-16T01:53:18;7.32;;;4.63;;
73276;SDS011;61501;43.316;5.372;2022-10-16T01:55:46;7.63;;;4.55;;
73276;SDS011;61501;43.316;5.372;2022-10-16T01:58:14;6.43;;;4.20;;
73276;SDS011;61501;43.316;5.372;2022-10-16T02:00:42;6.97;;;4.53;;
73276;SDS011;61501;43.316;5.372;2022-10-16T02:03:10;6.15;;;4.35;;
73276;SDS011;61501;43.316;5.372;2022-10-16T02:05:45;4.95;;;4.15;;
73276;SDS011;61501;43.316;5.372;2022-10-16T02:08:13;8.27;;;4.75;;
73276;SDS011;61501;43.316;5.372;2022-10-16T02:10:39;9.40;;;5.38;;
73276;SDS011;61501;43.316;5.372;2022-10-16T02:15:34;7.43;;;5.03;;
73276;SDS011;61501;43.316;5.372;2022-10-16T02:17:59;6.10;;;4.57;;
73276;SDS011;61501;43.316;5.372;2022-10-16T02:20:28;7.03;;;4.90;;
73276;SDS011;61501;43.316;5.372;2022-10-16T02:23:00;9.10;;;5.18;;
73276;SDS011;61501;43.316;5.372;2022-10-16T02:25:32;5.65;;;5.05;;
73276;SDS011;61501;43.316;5.372;2022-10-16T02:28:03;6.82;;;5.13;;
73276;SDS011;61501;43.316;5.372;2022-10-16T02:30:45;5.80;;;4.78;;
73276;SDS011;61501;43.316;5.372;2022-10-16T02:33:21;7.28;;;4.93;;
73276;SDS011;61501;43.316;5.372;2022-10-16T02:35:49;8.10;;;5.25;;
73276;SDS011;61501;43.316;5.372;2022-10-16T02:38:16;8.27;;;5.35;;
73276;SDS011;61501;43.316;5.372;2022-10-16T02:40:43;6.78;;;5.82;;
73276;SDS011;61501;43.316;5.372;2022-10-16T02:43:09;6.57;;;5.60;;
73276;SDS011;61501;43.316;5.372;2022-10-16T02:45:36;7.30;;;4.68;;
73276;SDS011;61501;43.316;5.372;2022-10-16T02:48:02;9.57;;;5.38;;
73276;SDS011;61501;43.316;5.372;2022-10-16T02:50:28;8.48;;;4.90;;
73276;SDS011;61501;43.316;5.372;2022-10-16T02:52:53;5.45;;;4.45;;
73276;SDS011;61501;43.316;5.372;2022-10-16T02:55:19;5.90;;;4.63;;
73276;SDS011;61501;43.316;5.372;2022-10-16T02:57:45;7.28;;;4.25;;
73276;SDS011;61501;43.316;5.372;2022-10-16T03:00:12;7.95;;;4.82;;
73276;SDS011;61501;43.316;5.372;2022-10-16T03:02:39;6.78;;;4.63;;
73276;SDS011;61501;43.316;5.372;2022-10-16T03:05:05;6.47;;;4.90;;
73276;SDS011;61501;43.316;5.372;2022-10-16T03:07:31;7.57;;;4.53;;
73276;SDS011;61501;43.316;5.372;2022-10-16T03:09:56;6.75;;;4.45;;
73276;SDS011;61501;43.316;5.372;2022-10-16T03:12:25;7.68;;;4.72;;
73276;SDS011;61501;43.316;5.372;2022-10-16T03:14:53;5.43;;;4.60;;
73276;SDS011;61501;43.316;5.372;2022-10-16T03:17:20;5.95;;;4.55;;
73276;SDS011;61501;43.316;5.372;2022-10-16T03:19:45;8.00;;;4.65;;
73276;SDS011;61501;43.316;5.372;2022-10-16T03:22:11;7.32;;;5.20;;
73276;SDS011;61501;43.316;5.372;2022-10-16T03:24:36;7.22;;;4.40;;
73276;SDS011;61501;43.316;5.372;2022-10-16T03:27:02;5.93;;;5.18;;
73276;SDS011;61501;43.316;5.372;2022-10-16T03:29:28;7.47;;;5.68;;
73276;SDS011;61501;43.316;5.372;2022-10-16T03:31:54;6.45;;;5.20;;
73276;SDS011;61501;43.316;5.372;2022-10-16T03:34:21;6.43;;;5.20;;
73276;SDS011;61501;43.316;5.372;2022-10-16T03:36:46;9.63;;;5.55;;
73276;SDS011;61501;43.316;5.372;2022-10-16T03:39:12;8.40;;;5.28;;
73276;SDS011;61501;43.316;5.372;2022-10-16T03:41:38;5.50;;;4.97;;
73276;SDS011;61501;43.316;5.372;2022-10-16T03:44:03;5.90;;;4.97;;
73276;SDS011;61501;43.316;5.372;2022-10-16T03:46:29;6.80;;;5.00;;
73276;SDS011;61501;43.316;5.372;2022-10-16T03:48:54;5.97;;;5.10;;
73276;SDS011;61501;43.316;5.372;2022-10-16T03:51:20;5.43;;;4.65;;
73276;SDS011;61501;43.316;5.372;2022-10-16T03:53:46;4.70;;;4.30;;
73276;SDS011;61501;43.316;5.372;2022-10-16T03:56:11;6.80;;;4.80;;
73276;SDS011;61501;43.316;5.372;2022-10-16T03:58:37;7.47;;;4.72;;
73276;SDS011;61501;43.316;5.372;2022-10-16T04:01:03;7.53;;;4.75;;
73276;SDS011;61501;43.316;5.372;2022-10-16T04:03:28;5.47;;;4.50;;
73276;SDS011;61501;43.316;5.372;2022-10-16T04:05:54;6.57;;;4.40;;
73276;SDS011;61501;43.316;5.372;2022-10-16T04:08:20;6.35;;;4.90;;
73276;SDS011;61501;43.316;5.372;2022-10-16T04:10:46;6.03;;;4.63;;
73276;SDS011;61501;43.316;5.372;2022-10-16T04:13:11;5.60;;;4.88;;
73276;SDS011;61501;43.316;5.372;2022-10-16T04:15:38;5.53;;;4.78;;
73276;SDS011;61501;43.316;5.372;2022-10-16T04:18:04;7.60;;;5.43;;
73276;SDS011;61501;43.316;5.372;2022-10-16T04:20:30;8.43;;;5.20;;
73276;SDS011;61501;43.316;5.372;2022-10-16T04:22:56;7.05;;;4.82;;
73276;SDS011;61501;43.316;5.372;2022-10-16T04:25:22;6.82;;;5.50;;
73276;SDS011;61501;43.316;5.372;2022-10-16T04:27:47;6.10;;;5.40;;
73276;SDS011;61501;43.316;5.372;2022-10-16T04:30:13;5.85;;;5.25;;
73276;SDS011;61501;43.316;5.372;2022-10-16T04:32:39;8.00;;;5.22;;
73276;SDS011;61501;43.316;5.372;2022-10-16T04:35:05;5.53;;;5.00;;
73276;SDS011;61501;43.316;5.372;2022-10-16T04:37:31;5.63;;;5.07;;
73276;SDS011;61501;43.316;5.372;2022-10-16T04:39:57;6.22;;;5.18;;
73276;SDS011;61501;43.316;5.372;2022-10-16T04:42:22;5.75;;;5.00;;
73276;SDS011;61501;43.316;5.372;2022-10-16T04:44:48;5.85;;;4.97;;
73276;SDS011;61501;43.316;5.372;2022-10-16T04:47:13;6.50;;;5.00;;
73276;SDS011;61501;43.316;5.372;2022-10-16T04:49:39;6.38;;;5.05;;
73276;SDS011;61501;43.316;5.372;2022-10-16T04:52:05;6.68;;;4.97;;
73276;SDS011;61501;43.316;5.372;2022-10-16T04:54:30;8.07;;;5.50;;
73276;SDS011;61501;43.316;5.372;2022-10-16T04:56:56;6.20;;;5.60;;
73276;SDS011;61501;43.316;5.372;2022-10-16T04:59:22;6.55;;;4.93;;
73276;SDS011;61501;43.316;5.372;2022-10-16T05:01:48;5.38;;;4.85;;
73276;SDS011;61501;43.316;5.372;2022-10-16T05:04:14;6.13;;;4.97;;
73276;SDS011;61501;43.316;5.372;2022-10-16T05:06:40;5.45;;;4.88;;
73276;SDS011;61501;43.316;5.372;2022-10-16T05:09:07;6.57;;;5.47;;
73276;SDS011;61501;43.316;5.372;2022-10-16T05:11:33;6.13;;;5.32;;
73276;SDS011;61501;43.316;5.372;2022-10-16T05:13:59;5.93;;;4.90;;
73276;SDS011;61501;43.316;5.372;2022-10-16T05:16:25;5.43;;;4.97;;
73276;SDS011;61501;43.316;5.372;2022-10-16T05:18:51;5.90;;;4.82;;
73276;SDS011;61501;43.316;5.372;2022-10-16T05:21:17;7.10;;;4.90;;
73276;SDS011;61501;43.316;5.372;2022-10-16T05:23:43;5.93;;;4.65;;
73276;SDS011;61501;43.316;5.372;2022-10-16T05:26:09;9.98;;;5.40;;
73276;SDS011;61501;43.316;5.372;2022-10-16T05:28:35;6.55;;;5.15;;
73276;SDS011;61501;43.316;5.372;2022-10-16T05:31:07;6.03;;;5.03;;
73276;SDS011;61501;43.316;5.372;2022-10-16T05:33:34;8.32;;;5.10;;
73276;SDS011;61501;43.316;5.372;2022-10-16T05:36:01;6.55;;;5.00;;
73276;SDS011;61501;43.316;5.372;2022-10-16T05:38:31;5.35;;;4.68;;
73276;SDS011;61501;43.316;5.372;2022-10-16T05:40:56;6.30;;;4.78;;
73276;SDS011;61501;43.316;5.372;2022-10-16T05:43:22;5.32;;;4.53;;
73276;SDS011;61501;43.316;5.372;2022-10-16T05:45:59;7.18;;;4.80;;
73276;SDS011;61501;43.316;5.372;2022-10-16T05:48:26;6.97;;;5.10;;
73276;SDS011;61501;43.316;5.372;2022-10-16T05:50:56;7.60;;;5.05;;
73276;SDS011;61501;43.316;5.372;2022-10-16T05:53:23;6.65;;;4.70;;
73276;SDS011;61501;43.316;5.372;2022-10-16T05:55:56;6.88;;;5.15;;
73276;SDS011;61501;43.316;5.372;2022-10-16T05:58:23;5.93;;;5.22;;
73276;SDS011;61501;43.316;5.372;2022-10-16T06:00:52;7.95;;;5.00;;
73276;SDS011;61501;43.316;5.372;2022-10-16T06:03:19;5.47;;;4.97;;
73276;SDS011;61501;43.316;5.372;2022-10-16T06:05:44;8.70;;;5.85;;
73276;SDS011;61501;43.316;5.372;2022-10-16T06:08:10;9.30;;;5.53;;
73276;SDS011;61501;43.316;5.372;2022-10-16T06:10:35;6.88;;;6.18;;
73276;SDS011;61501;43.316;5.372;2022-10-16T06:13:01;6.25;;;5.00;;
73276;SDS011;61501;43.316;5.372;2022-10-16T06:15:27;6.43;;;5.22;;
73276;SDS011;61501;43.316;5.372;2022-10-16T06:17:52;6.20;;;5.47;;
73276;SDS011;61501;43.316;5.372;2022-10-16T06:20:18;6.80;;;5.20;;
73276;SDS011;61501;43.316;5.372;2022-10-16T06:22:43;6.38;;;5.63;;
73276;SDS011;61501;43.316;5.372;2022-10-16T06:25:09;6.20;;;5.15;;
73276;SDS011;61501;43.316;5.372;2022-10-16T06:27:35;6.90;;;5.70;;
73276;SDS011;61501;43.316;5.372;2022-10-16T06:30:00;6.18;;;5.57;;
73276;SDS011;61501;43.316;5.372;2022-10-16T06:32:26;6.80;;;5.50;;
73276;SDS011;61501;43.316;5.372;2022-10-16T06:34:52;7.70;;;5.18;;
73276;SDS011;61501;43.316;5.372;2022-10-16T06:37:18;6.25;;;5.32;;
73276;SDS011;61501;43.316;5.372;2022-10-16T06:39:43;7.25;;;5.50;;
73276;SDS011;61501;43.316;5.372;2022-10-16T06:42:09;8.30;;;5.40;;
73276;SDS011;61501;43.316;5.372;2022-10-16T06:44:34;5.65;;;5.00;;
73276;SDS011;61501;43.316;5.372;2022-10-16T06:47:00;6.82;;;5.32;;
73276;SDS011;61501;43.316;5.372;2022-10-16T06:49:26;6.65;;;5.10;;
73276;SDS011;61501;43.316;5.372;2022-10-16T06:51:53;8.55;;;6.07;;
73276;SDS011;61501;43.316;5.372;2022-10-16T06:54:19;5.85;;;5.25;;
73276;SDS011;61501;43.316;5.372;2022-10-16T06:56:44;6.05;;;5.45;;
73276;SDS011;61501;43.316;5.372;2022-10-16T06:59:10;5.80;;;5.18;;
73276;SDS011;61501;43.316;5.372;2022-10-16T07:01:35;7.97;;;5.20;;
73276;SDS011;61501;43.316;5.372;2022-10-16T07:04:01;7.35;;;5.65;;
73276;SDS011;61501;43.316;5.372;2022-10-16T07:06:29;6.07;;;4.80;;
73276;SDS011;61501;43.316;5.372;2022-10-16T07:08:57;6.93;;;5.43;;
73276;SDS011;61501;43.316;5.372;2022-10-16T07:11:25;7.07;;;5.45;;
73276;SDS011;61501;43.316;5.372;2022-10-16T07:13:51;5.97;;;5.00;;
73276;SDS011;61501;43.316;5.372;2022-10-16T07:16:18;6.75;;;5.07;;
73276;SDS011;61501;43.316;5.372;2022-10-16T07:18:45;7.70;;;5.85;;
73276;SDS011;61501;43.316;5.372;2022-10-16T07:21:14;7.82;;;6.03;;
73276;SDS011;61501;43.316;5.372;2022-10-16T07:23:41;8.70;;;5.85;;
73276;SDS011;61501;43.316;5.372;2022-10-16T07:26:08;7.60;;;6.10;;
73276;SDS011;61501;43.316;5.372;2022-10-16T07:28:34;8.30;;;6.03;;
73276;SDS011;61501;43.316;5.372;2022-10-16T07:31:04;6.65;;;5.90;;
73276;SDS011;61501;43.316;5.372;2022-10-16T07:33:32;6.93;;;6.13;;
73276;SDS011;61501;43.316;5.372;2022-10-16T07:35:59;6.15;;;5.47;;
73276;SDS011;61501;43.316;5.372;2022-10-16T07:38:24;7.40;;;5.80;;
73276;SDS011;61501;43.316;5.372;2022-10-16T07:41:00;7.93;;;5.35;;
73276;SDS011;61501;43.316;5.372;2022-10-16T07:43:30;5.85;;;5.22;;
73276;SDS011;61501;43.316;5.372;2022-10-16T07:45:56;6.95;;;6.05;;
73276;SDS011;61501;43.316;5.372;2022-10-16T07:48:22;6.97;;;4.60;;
73276;SDS011;61501;43.316;5.372;2022-10-16T07:50:49;7.47;;;5.15;;
73276;SDS011;61501;43.316;5.372;2022-10-16T07:53:15;7.47;;;6.30;;
73276;SDS011;61501;43.316;5.372;2022-10-16T07:55:41;6.95;;;5.22;;
73276;SDS011;61501;43.316;5.372;2022-10-16T07:58:07;7.22;;;4.85;;
73276;SDS011;61501;43.316;5.372;2022-10-16T08:00:33;6.72;;;5.00;;
73276;SDS011;61501;43.316;5.372;2022-10-16T08:02:59;7.60;;;5.32;;
73276;SDS011;61501;43.316;5.372;2022-10-16T08:05:28;5.97;;;5.40;;
73276;SDS011;61501;43.316;5.372;2022-10-16T08:07:56;7.82;;;5.97;;
73276;SDS011;61501;43.316;5.372;2022-10-16T08:10:22;5.57;;;4.97;;
73276;SDS011;61501;43.316;5.372;2022-10-16T08:12:49;9.05;;;5.18;;
73276;SDS011;61501;43.316;5.372;2022-10-16T08:15:15;7.40;;;5.47;;
73276;SDS011;61501;43.316;5.372;2022-10-16T08:17:41;7.10;;;5.25;;
73276;SDS011;61501;43.316;5.372;2022-10-16T08:20:07;10.85;;;6.28;;
73276;SDS011;61501;43.316;5.372;2022-10-16T08:22:33;8.32;;;6.97;;
73276;SDS011;61501;43.316;5.372;2022-10-16T08:24:59;7.10;;;6.40;;
73276;SDS011;61501;43.316;5.372;2022-10-16T08:27:24;7.22;;;5.90;;
73276;SDS011;61501;43.316;5.372;2022-10-16T08:29:50;11.18;;;6.07;;
73276;SDS011;61501;43.316;5.372;2022-10-16T08:32:16;6.10;;;5.47;;
73276;SDS011;61501;43.316;5.372;2022-10-16T08:34:42;8.48;;;6.00;;
73276;SDS011;61501;43.316;5.372;2022-10-16T08:37:07;6.28;;;4.88;;
73276;SDS011;61501;43.316;5.372;2022-10-16T08:39:36;11.75;;;4.70;;
73276;SDS011;61501;43.316;5.372;2022-10-16T08:50:15;5.57;;;4.30;;
73276;SDS011;61501;43.316;5.372;2022-10-16T08:52:46;8.75;;;4.78;;
73276;SDS011;61501;43.316;5.372;2022-10-16T08:55:27;6.70;;;4.97;;
73276;SDS011;61501;43.316;5.372;2022-10-16T08:57:53;6.43;;;4.80;;
73276;SDS011;61501;43.316;5.372;2022-10-16T09:00:19;6.80;;;5.00;;
73276;SDS011;61501;43.316;5.372;2022-10-16T09:02:51;5.32;;;4.40;;
73276;SDS011;61501;43.316;5.372;2022-10-16T09:18:48;9.35;;;4.15;;
73276;SDS011;61501;43.316;5.372;2022-10-16T09:23:42;10.77;;;4.38;;
73276;SDS011;61501;43.316;5.372;2022-10-16T09:26:12;5.90;;;3.72;;
73276;SDS011;61501;43.316;5.372;2022-10-16T09:28:39;4.82;;;4.15;;
73276;SDS011;61501;43.316;5.372;2022-10-16T09:31:05;5.55;;;3.90;;
73276;SDS011;61501;43.316;5.372;2022-10-16T09:33:36;5.45;;;4.28;;
73276;SDS011;61501;43.316;5.372;2022-10-16T09:36:04;6.15;;;4.45;;
73276;SDS011;61501;43.316;5.372;2022-10-16T09:38:31;5.90;;;3.85;;
73276;SDS011;61501;43.316;5.372;2022-10-16T09:40:59;6.22;;;3.90;;
73276;SDS011;61501;43.316;5.372;2022-10-16T09:51:24;8.23;;;4.25;;
73276;SDS011;61501;43.316;5.372;2022-10-16T09:53:54;8.40;;;4.05;;
73276;SDS011;61501;43.316;5.372;2022-10-16T09:56:26;5.90;;;3.75;;
73276;SDS011;61501;43.316;5.372;2022-10-16T09:59:13;6.38;;;4.60;;
73276;SDS011;61501;43.316;5.372;2022-10-16T10:01:41;5.18;;;3.60;;
73276;SDS011;61501;43.316;5.372;2022-10-16T10:04:10;5.63;;;4.20;;
73276;SDS011;61501;43.316;5.372;2022-10-16T10:06:37;6.60;;;4.00;;
73276;SDS011;61501;43.316;5.372;2022-10-16T10:09:21;6.95;;;3.80;;
73276;SDS011;61501;43.316;5.372;2022-10-16T10:11:56;4.60;;;3.40;;
73276;SDS011;61501;43.316;5.372;2022-10-16T10:14:34;5.15;;;3.83;;
73276;SDS011;61501;43.316;5.372;2022-10-16T10:19:51;6.07;;;4.07;;
73276;SDS011;61501;43.316;5.372;2022-10-16T10:22:41;6.40;;;3.72;;
73276;SDS011;61501;43.316;5.372;2022-10-16T10:38:50;6.57;;;3.95;;
73276;SDS011;61501;43.316;5.372;2022-10-16T10:47:18;8.65;;;3.28;;
73276;SDS011;61501;43.316;5.372;2022-10-16T10:56:00;5.90;;;2.80;;
73276;SDS011;61501;43.316;5.372;2022-10-16T11:01:15;5.97;;;3.10;;
73276;SDS011;61501;43.316;5.372;2022-10-16T11:06:40;4.78;;;3.15;;
73276;SDS011;61501;43.316;5.372;2022-10-16T11:12:12;7.53;;;2.70;;
73276;SDS011;61501;43.316;5.372;2022-10-16T11:17:33;6.30;;;3.22;;
73276;SDS011;61501;43.316;5.372;2022-10-16T11:22:53;8.77;;;5.63;;
73276;SDS011;61501;43.316;5.372;2022-10-16T11:25:22;5.00;;;3.40;;
73276;SDS011;61501;43.316;5.372;2022-10-16T11:27:54;5.53;;;2.90;;
73276;SDS011;61501;43.316;5.372;2022-10-16T11:30:34;6.18;;;3.67;;
73276;SDS011;61501;43.316;5.372;2022-10-16T11:33:24;4.85;;;3.30;;
73276;SDS011;61501;43.316;5.372;2022-10-16T11:36:00;5.78;;;3.20;;
73276;SDS011;61501;43.316;5.372;2022-10-16T11:49:39;5.32;;;3.05;;
73276;SDS011;61501;43.316;5.372;2022-10-16T11:57:38;9.18;;;3.38;;
73276;SDS011;61501;43.316;5.372;2022-10-16T12:00:20;4.60;;;2.97;;
73276;SDS011;61501;43.316;5.372;2022-10-16T12:08:48;3.38;;;2.60;;
73276;SDS011;61501;43.316;5.372;2022-10-16T12:11:30;7.82;;;3.60;;
73276;SDS011;61501;43.316;5.372;2022-10-16T12:19:17;4.72;;;2.72;;
73276;SDS011;61501;43.316;5.372;2022-10-16T12:21:45;4.07;;;2.88;;
73276;SDS011;61501;43.316;5.372;2022-10-16T12:26:57;4.72;;;2.10;;
73276;SDS011;61501;43.316;5.372;2022-10-16T12:31:59;4.85;;;2.33;;
73276;SDS011;61501;43.316;5.372;2022-10-16T12:34:37;4.25;;;2.40;;
73276;SDS011;61501;43.316;5.372;2022-10-16T12:37:11;4.45;;;2.85;;
73276;SDS011;61501;43.316;5.372;2022-10-16T12:39:44;3.83;;;2.58;;
73276;SDS011;61501;43.316;5.372;2022-10-16T12:44:52;6.45;;;5.30;;
73276;SDS011;61501;43.316;5.372;2022-10-16T12:49:57;3.83;;;2.40;;
73276;SDS011;61501;43.316;5.372;2022-10-16T12:52:39;3.15;;;2.30;;
73276;SDS011;61501;43.316;5.372;2022-10-16T12:55:05;5.97;;;2.58;;
73276;SDS011;61501;43.316;5.372;2022-10-16T13:00:25;6.00;;;2.47;;
73276;SDS011;61501;43.316;5.372;2022-10-16T13:27:18;4.22;;;2.70;;
73276;SDS011;61501;43.316;5.372;2022-10-16T13:29:52;4.80;;;2.80;;
73276;SDS011;61501;43.316;5.372;2022-10-16T13:32:25;4.57;;;2.60;;
73276;SDS011;61501;43.316;5.372;2022-10-16T13:34:52;8.68;;;2.58;;
73276;SDS011;61501;43.316;5.372;2022-10-16T13:37:20;7.05;;;2.92;;
73276;SDS011;61501;43.316;5.372;2022-10-16T13:39:47;6.30;;;2.65;;
73276;SDS011;61501;43.316;5.372;2022-10-16T13:42:20;4.95;;;2.83;;
73276;SDS011;61501;43.316;5.372;2022-10-16T13:44:52;5.47;;;2.97;;
73276;SDS011;61501;43.316;5.372;2022-10-16T13:47:19;4.13;;;2.72;;
73276;SDS011;61501;43.316;5.372;2022-10-16T13:49:47;5.93;;;3.35;;
73276;SDS011;61501;43.316;5.372;2022-10-16T13:52:50;5.60;;;2.80;;
73276;SDS011;61501;43.316;5.372;2022-10-16T13:55:17;6.45;;;2.88;;
73276;SDS011;61501;43.316;5.372;2022-10-16T13:57:43;4.90;;;2.55;;
73276;SDS011;61501;43.316;5.372;2022-10-16T14:02:53;4.50;;;2.60;;
73276;SDS011;61501;43.316;5.372;2022-10-16T14:05:25;7.55;;;2.42;;
73276;SDS011;61501;43.316;5.372;2022-10-16T14:07:51;8.27;;;2.78;;
73276;SDS011;61501;43.316;5.372;2022-10-16T14:10:21;5.13;;;2.72;;
73276;SDS011;61501;43.316;5.372;2022-10-16T14:12:59;5.82;;;2.67;;
73276;SDS011;61501;43.316;5.372;2022-10-16T14:15:27;6.13;;;2.78;;
73276;SDS011;61501;43.316;5.372;2022-10-16T14:17:55;3.38;;;2.40;;
73276;SDS011;61501;43.316;5.372;2022-10-16T14:20:22;5.00;;;2.70;;
73276;SDS011;61501;43.316;5.372;2022-10-16T14:22:58;5.97;;;2.50;;
73276;SDS011;61501;43.316;5.372;2022-10-16T14:25:26;4.32;;;2.53;;
73276;SDS011;61501;43.316;5.372;2022-10-16T14:28:01;6.40;;;2.70;;
73276;SDS011;61501;43.316;5.372;2022-10-16T14:30:34;3.78;;;2.20;;
73276;SDS011;61501;43.316;5.372;2022-10-16T14:37:56;4.72;;;2.60;;
73276;SDS011;61501;43.316;5.372;2022-10-16T14:40:31;6.28;;;2.83;;
73276;SDS011;61501;43.316;5.372;2022-10-16T14:42:58;3.78;;;2.33;;
73276;SDS011;61501;43.316;5.372;2022-10-16T14:45:29;6.63;;;2.53;;
73276;SDS011;61501;43.316;5.372;2022-10-16T14:47:58;3.83;;;2.30;;
73276;SDS011;61501;43.316;5.372;2022-10-16T14:50:27;4.25;;;2.33;;
73276;SDS011;61501;43.316;5.372;2022-10-16T14:52:53;3.78;;;2.10;;
73276;SDS011;61501;43.316;5.372;2022-10-16T14:55:19;3.90;;;1.90;;
73276;SDS011;61501;43.316;5.372;2022-10-16T14:57:45;4.88;;;2.38;;
73276;SDS011;61501;43.316;5.372;2022-10-16T15:00:16;4.05;;;2.45;;
73276;SDS011;61501;43.316;5.372;2022-10-16T15:02:42;7.28;;;2.53;;
73276;SDS011;61501;43.316;5.372;2022-10-16T15:05:25;6.65;;;2.55;;
73276;SDS011;61501;43.316;5.372;2022-10-16T15:07:52;5.20;;;2.72;;
73276;SDS011;61501;43.316;5.372;2022-10-16T15:10:19;3.30;;;2.50;;
73276;SDS011;61501;43.316;5.372;2022-10-16T15:12:50;7.70;;;2.75;;
73276;SDS011;61501;43.316;5.372;2022-10-16T15:15:24;4.60;;;2.70;;
73276;SDS011;61501;43.316;5.372;2022-10-16T15:18:02;5.90;;;3.03;;
73276;SDS011;61501;43.316;5.372;2022-10-16T15:20:32;11.05;;;2.67;;
73276;SDS011;61501;43.316;5.372;2022-10-16T15:23:04;5.10;;;2.80;;
73276;SDS011;61501;43.316;5.372;2022-10-16T15:28:04;5.18;;;2.40;;
73276;SDS011;61501;43.316;5.372;2022-10-16T15:30:32;4.53;;;2.25;;
73276;SDS011;61501;43.316;5.372;2022-10-16T15:32:57;5.70;;;3.13;;
73276;SDS011;61501;43.316;5.372;2022-10-16T15:35:23;4.95;;;2.63;;
73276;SDS011;61501;43.316;5.372;2022-10-16T15:37:49;7.32;;;2.90;;
73276;SDS011;61501;43.316;5.372;2022-10-16T15:40:16;3.78;;;2.50;;
73276;SDS011;61501;43.316;5.372;2022-10-16T15:42:42;5.95;;;2.35;;
73276;SDS011;61501;43.316;5.372;2022-10-16T15:45:08;3.58;;;2.20;;
73276;SDS011;61501;43.316;5.372;2022-10-16T15:47:35;5.53;;;2.95;;
73276;SDS011;61501;43.316;5.372;2022-10-16T15:50:01;4.68;;;2.33;;
73276;SDS011;61501;43.316;5.372;2022-10-16T15:52:27;4.88;;;2.10;;
73276;SDS011;61501;43.316;5.372;2022-10-16T15:54:53;3.47;;;2.28;;
73276;SDS011;61501;43.316;5.372;2022-10-16T15:57:19;7.70;;;2.60;;
73276;SDS011;61501;43.316;5.372;2022-10-16T15:59:45;5.13;;;2.30;;
73276;SDS011;61501;43.316;5.372;2022-10-16T16:02:11;4.88;;;2.33;;
73276;SDS011;61501;43.316;5.372;2022-10-16T16:04:36;3.85;;;2.40;;
73276;SDS011;61501;43.316;5.372;2022-10-16T16:07:02;5.00;;;2.58;;
73276;SDS011;61501;43.316;5.372;2022-10-16T16:09:31;8.63;;;3.33;;
73276;SDS011;61501;43.316;5.372;2022-10-16T16:11:56;5.55;;;2.83;;
73276;SDS011;61501;43.316;5.372;2022-10-16T16:14:25;7.68;;;3.63;;
73276;SDS011;61501;43.316;5.372;2022-10-16T16:16:52;5.60;;;2.58;;
73276;SDS011;61501;43.316;5.372;2022-10-16T16:19:19;3.95;;;2.70;;
73276;SDS011;61501;43.316;5.372;2022-10-16T16:21:46;4.85;;;2.90;;
73276;SDS011;61501;43.316;5.372;2022-10-16T16:24:12;4.50;;;2.65;;
73276;SDS011;61501;43.316;5.372;2022-10-16T16:26:37;5.78;;;3.08;;
73276;SDS011;61501;43.316;5.372;2022-10-16T16:29:08;5.60;;;2.67;;
73276;SDS011;61501;43.316;5.372;2022-10-16T16:31:37;6.05;;;2.95;;
73276;SDS011;61501;43.316;5.372;2022-10-16T16:34:03;5.47;;;3.30;;
73276;SDS011;61501;43.316;5.372;2022-10-16T16:36:29;6.65;;;3.17;;
73276;SDS011;61501;43.316;5.372;2022-10-16T16:38:54;6.38;;;3.05;;
73276;SDS011;61501;43.316;5.372;2022-10-16T16:41:22;6.40;;;2.72;;
73276;SDS011;61501;43.316;5.372;2022-10-16T16:43:50;7.68;;;3.05;;
73276;SDS011;61501;43.316;5.372;2022-10-16T16:46:17;5.55;;;2.67;;
73276;SDS011;61501;43.316;5.372;2022-10-16T16:48:43;4.43;;;2.50;;
73276;SDS011;61501;43.316;5.372;2022-10-16T16:51:10;5.10;;;2.75;;
73276;SDS011;61501;43.316;5.372;2022-10-16T16:53:44;5.75;;;2.92;;
73276;SDS011;61501;43.316;5.372;2022-10-16T16:56:11;7.05;;;3.20;;
73276;SDS011;61501;43.316;5.372;2022-10-16T16:58:37;5.38;;;3.10;;
73276;SDS011;61501;43.316;5.372;2022-10-16T17:01:03;5.68;;;3.10;;
73276;SDS011;61501;43.316;5.372;2022-10-16T17:03:30;5.53;;;3.20;;
73276;SDS011;61501;43.316;5.372;2022-10-16T17:05:57;4.10;;;2.60;;
73276;SDS011;61501;43.316;5.372;2022-10-16T17:08:24;7.95;;;3.17;;
73276;SDS011;61501;43.316;5.372;2022-10-16T17:10:50;7.15;;;3.15;;
73276;SDS011;61501;43.316;5.372;2022-10-16T17:13:19;4.15;;;3.10;;
73276;SDS011;61501;43.316;5.372;2022-10-16T17:15:50;5.63;;;3.30;;
73276;SDS011;61501;43.316;5.372;2022-10-16T17:18:17;4.78;;;3.05;;
73276;SDS011;61501;43.316;5.372;2022-10-16T17:20:43;5.28;;;3.03;;
73276;SDS011;61501;43.316;5.372;2022-10-16T17:23:09;7.72;;;4.40;;
73276;SDS011;61501;43.316;5.372;2022-10-16T17:25:36;5.38;;;3.58;;
73276;SDS011;61501;43.316;5.372;2022-10-16T17:28:02;6.85;;;4.35;;
73276;SDS011;61501;43.316;5.372;2022-10-16T17:30:28;8.35;;;4.95;;
73276;SDS011;61501;43.316;5.372;2022-10-16T17:32:54;5.53;;;3.80;;
73276;SDS011;61501;43.316;5.372;2022-10-16T17:35:19;7.22;;;3.30;;
73276;SDS011;61501;43.316;5.372;2022-10-16T17:37:45;7.60;;;3.88;;
73276;SDS011;61501;43.316;5.372;2022-10-16T17:40:11;6.93;;;3.85;;
73276;SDS011;61501;43.316;5.372;2022-10-16T17:42:37;5.70;;;3.20;;
73276;SDS011;61501;43.316;5.372;2022-10-16T17:45:02;5.30;;;3.30;;